Time;durP1;ratioP1;P1;durP2;ratioP2;P2;SDS_P1;SDS_P2;PMS_P1;PMS_P2;Temp;Humidity;BMP_temperature;BMP_pressure;BME280_temperature;BME280_humidity;BME280_pressure;Samples;Min_cycle;Max_cycle;Signal;HPM_P1;HPM_P2
2023/05/01 00:01:16;;;;;;;1999.90;999.90;;;;;;;11.65;85.80;98070.78;5032937;28;20095;-73
2023/05/01 00:03:42;;;;;;;1999.90;999.90;;;;;;;11.62;86.16;98067.88;5033151;28;20104;-76
2023/05/01 00:06:07;;;;;;;1999.90;999.90;;;;;;;11.54;86.33;98055.66;5033160;28;20032;-76
2023/05/01 00:08:33;;;;;;;1999.90;999.90;;;;;;;11.40;87.69;98057.53;5032867;28;20384;-75
2023/05/01 00:11:03;;;;;;;1999.90;999.90;;;;;;;11.41;87.88;98056.41;5032766;28;20508;-76
2023/05/01 00:13:29;;;;;;;1999.90;999.90;;;;;;;11.41;87.61;98055.59;5015057;28;20466;-76
2023/05/01 00:15:54;;;;;;;1999.90;999.90;;;;;;;11.46;87.83;98061.81;5032796;28;20108;-76
2023/05/01 00:18:20;;;;;;;1999.90;999.90;;;;;;;11.34;89.80;98064.19;5014953;28;20033;-76
2023/05/01 00:20:45;;;;;;;1999.90;999.90;;;;;;;11.21;91.73;98056.72;5032947;28;20533;-77
2023/05/01 00:23:11;;;;;;;1999.90;999.90;;;;;;;11.07;93.36;98050.34;5032950;28;20426;-76
2023/05/01 00:25:37;;;;;;;1999.90;999.90;;;;;;;10.92;94.83;98042.38;5032415;28;20053;-76
2023/05/01 00:28:02;;;;;;;1999.90;999.90;;;;;;;11.02;96.09;98054.00;5015101;28;20485;-76
2023/05/01 00:30:27;;;;;;;1999.90;999.90;;;;;;;10.98;95.90;98052.13;5032426;28;20034;-76
2023/05/01 00:32:53;;;;;;;1999.90;999.90;;;;;;;10.82;96.33;98032.38;5032005;28;20129;-77
2023/05/01 00:35:18;;;;;;;1999.90;999.90;;;;;;;10.87;97.01;98051.44;5032388;28;20049;-76
2023/05/01 00:37:43;;;;;;;1999.90;999.90;;;;;;;10.83;99.23;98044.13;5011704;28;20057;-76
2023/05/01 00:40:09;;;;;;;1999.90;999.90;;;;;;;10.78;99.31;98042.28;5032036;28;20052;-77
2023/05/01 00:42:36;;;;;;;1999.90;999.90;;;;;;;10.76;100.00;98047.25;4994821;28;20117;-76
2023/05/01 00:45:01;;;;;;;1999.90;999.90;;;;;;;10.82;99.43;98047.97;5012854;28;20053;-76
2023/05/01 00:47:27;;;;;;;1999.90;999.90;;;;;;;10.68;99.11;98056.91;5032891;28;20417;-76
2023/05/01 00:49:54;;;;;;;1999.90;999.90;;;;;;;10.60;100.00;98046.63;5013982;28;20033;-76
2023/05/01 00:52:19;;;;;;;1999.90;999.90;;;;;;;10.59;100.00;98053.19;5032209;28;20033;-76
2023/05/01 00:54:50;;;;;;;1999.90;999.90;;;;;;;10.55;100.00;98049.44;5014237;28;20025;-76
2023/05/01 00:57:19;;;;;;;1999.90;999.90;;;;;;;10.48;100.00;98048.97;5031737;28;20021;-76
2023/05/01 00:59:45;;;;;;;1999.90;999.90;;;;;;;10.46;100.00;98042.97;5031926;28;20036;-76
2023/05/01 01:02:11;;;;;;;1999.90;999.90;;;;;;;10.35;100.00;98038.72;5031568;28;20033;-76
2023/05/01 01:04:37;;;;;;;1999.90;999.90;;;;;;;10.27;100.00;98047.59;5031786;28;20025;-75
2023/05/01 01:07:10;;;;;;;1999.90;999.90;;;;;;;10.31;100.00;98050.53;5014402;28;20018;-75
2023/05/01 01:09:51;;;;;;;1999.90;999.90;;;;;;;10.32;100.00;98046.69;5031560;28;20029;-77
2023/05/01 01:12:37;;;;;;;1999.90;999.90;;;;;;;10.36;100.00;98051.31;5031417;28;20501;-75
2023/05/01 01:15:18;;;;;;;1999.90;999.90;;;;;;;10.26;100.00;98045.13;5031285;28;20402;-75
2023/05/01 01:18:00;;;;;;;1999.90;999.90;;;;;;;10.17;100.00;98047.69;5031497;28;20037;-75
2023/05/01 01:20:49;;;;;;;1999.90;999.90;;;;;;;10.17;100.00;98044.97;5013664;28;20113;-75
2023/05/01 01:23:35;;;;;;;1999.90;999.90;;;;;;;10.17;100.00;98044.97;5019269;28;20041;-75
2023/05/01 01:26:12;;;;;;;1999.90;999.90;;;;;;;10.11;100.00;98037.91;5031496;28;20041;-75
2023/05/01 01:29:15;;;;;;;1999.90;999.90;;;;;;;10.05;100.00;98048.06;5031232;28;20474;-76
2023/05/01 01:32:08;;;;;;;1999.90;999.90;;;;;;;10.03;100.00;98038.50;5031231;28;20025;-76
2023/05/01 01:34:38;;;;;;;1999.90;999.90;;;;;;;9.91;100.00;98032.63;5030868;28;20494;-75
2023/05/01 01:37:12;;;;;;;1999.90;999.90;;;;;;;9.96;100.00;98032.59;5013771;28;20049;-75
2023/05/01 01:39:48;;;;;;;1999.90;999.90;;;;;;;9.97;100.00;98035.03;5033508;28;20044;-77
2023/05/01 01:42:31;;;;;;;1999.90;999.90;;;;;;;9.90;100.00;98028.28;5031319;28;20025;-77
2023/05/01 01:45:01;;;;;;;1999.90;999.90;;;;;;;10.04;100.00;98038.22;5013225;28;20037;-75
2023/05/01 01:47:30;;;;;;;1999.90;999.90;;;;;;;9.95;100.00;98039.16;5030856;28;20038;-76
2023/05/01 01:49:58;;;;;;;1999.90;999.90;;;;;;;9.94;100.00;98043.81;5031027;28;20030;-77
2023/05/01 01:52:26;;;;;;;1999.90;999.90;;;;;;;9.90;100.00;98034.53;5030754;28;20026;-77
2023/05/01 01:54:57;;;;;;;1999.90;999.90;;;;;;;9.81;100.00;98038.19;5030908;28;20029;-77
2023/05/01 01:57:25;;;;;;;1999.90;999.90;;;;;;;9.78;100.00;98034.13;5013282;28;20057;-76
2023/05/01 01:59:50;;;;;;;1999.90;999.90;;;;;;;9.78;100.00;98033.31;5013067;28;20030;-74
2023/05/01 02:02:19;;;;;;;1999.90;999.90;;;;;;;9.75;100.00;98033.88;5030763;28;20095;-76
2023/05/01 02:04:47;;;;;;;1999.90;999.90;;;;;;;9.71;100.00;98019.19;5030641;28;20458;-75
2023/05/01 02:07:13;;;;;;;1999.90;999.90;;;;;;;9.71;100.00;98035.59;5030916;28;20479;-76
2023/05/01 02:09:40;;;;;;;1999.90;999.90;;;;;;;9.76;100.00;98030.06;5030402;28;20029;-76
2023/05/01 02:12:07;;;;;;;1999.90;999.90;;;;;;;9.63;100.00;98021.44;5014431;28;20142;-76
2023/05/01 02:14:34;;;;;;;1999.90;999.90;;;;;;;9.60;100.00;98026.66;5014448;28;20029;-77
2023/05/01 02:17:01;;;;;;;1999.90;999.90;;;;;;;9.49;100.00;98016.94;5032248;28;20045;-77
2023/05/01 02:19:27;;;;;;;1999.90;999.90;;;;;;;9.44;100.00;98012.31;5030598;28;20025;-75
2023/05/01 02:21:56;;;;;;;1999.90;999.90;;;;;;;9.52;100.00;98019.88;5030211;28;20030;-75
2023/05/01 02:24:23;;;;;;;1999.90;999.90;;;;;;;9.47;100.00;98014.47;5030129;28;20029;-75
2023/05/01 02:26:55;;;;;;;1999.90;999.90;;;;;;;9.41;100.00;98023.81;5030467;28;20087;-77
2023/05/01 02:29:20;;;;;;;1999.90;999.90;;;;;;;9.31;100.00;97998.50;5029737;28;20116;-75
2023/05/01 02:31:46;;;;;;;1999.90;999.90;;;;;;;9.35;100.00;97996.84;5046351;28;20111;-76
2023/05/01 02:34:11;;;;;;;1999.90;999.90;;;;;;;9.33;100.00;98012.72;5046527;28;20049;-75
2023/05/01 02:36:37;;;;;;;1999.90;999.90;;;;;;;9.26;100.00;98002.13;5012235;28;20064;-77
2023/05/01 02:39:03;;;;;;;1999.90;999.90;;;;;;;9.17;100.00;97995.66;5030418;28;20052;-76
2023/05/01 02:41:29;;;;;;;1999.90;999.90;;;;;;;9.20;100.00;97995.06;5044020;28;20793;-75
2023/05/01 02:44:03;;;;;;;1999.90;999.90;;;;;;;9.21;100.00;97999.41;5049849;28;20092;-76
2023/05/01 02:46:31;;;;;;;1999.90;999.90;;;;;;;9.10;100.00;98001.41;5049578;28;20032;-75
2023/05/01 02:48:58;;;;;;;1999.90;999.90;;;;;;;9.07;100.00;97998.44;5045034;28;20037;-76
2023/05/01 02:51:25;;;;;;;1999.90;999.90;;;;;;;9.03;100.00;97994.66;5037945;28;20028;-78
2023/05/01 02:53:50;;;;;;;1999.90;999.90;;;;;;;9.07;100.00;98001.16;5037855;28;20083;-76
2023/05/01 02:56:16;;;;;;;1999.90;999.90;;;;;;;8.95;100.00;97989.81;5028681;28;20018;-76
2023/05/01 02:58:41;;;;;;;1999.90;999.90;;;;;;;8.93;100.00;98001.00;5029968;28;20025;-75
2023/05/01 03:01:07;;;;;;;1999.90;999.90;;;;;;;8.89;100.00;97996.41;5029863;28;20029;-75
2023/05/01 03:03:32;;;;;;;1999.90;999.90;;;;;;;8.83;100.00;97995.63;5031495;28;20064;-74
2023/05/01 03:05:58;;;;;;;1999.90;999.90;;;;;;;8.88;100.00;97992.03;5032109;28;20035;-74
2023/05/01 03:08:23;;;;;;;1999.90;999.90;;;;;;;8.92;100.00;97995.81;5049923;28;20075;-74
2023/05/01 03:10:49;;;;;;;1999.90;999.90;;;;;;;8.74;100.00;97997.28;5009186;28;20044;-74
2023/05/01 03:13:14;;;;;;;1999.90;999.90;;;;;;;8.67;100.00;97988.63;5029737;28;20026;-75
2023/05/01 03:15:40;;;;;;;1999.90;999.90;;;;;;;8.57;100.00;97981.31;5029515;28;20029;-75
2023/05/01 03:18:05;;;;;;;1999.90;999.90;;;;;;;8.72;100.00;97988.59;5037316;28;20028;-75
2023/05/01 03:20:31;;;;;;;1999.90;999.90;;;;;;;8.60;100.00;97991.66;5025733;28;20044;-75
2023/05/01 03:22:56;;;;;;;1999.90;999.90;;;;;;;8.61;100.00;97992.50;5044979;28;20022;-75
2023/05/01 03:25:22;;;;;;;1999.90;999.90;;;;;;;8.54;100.00;97990.06;5053522;28;20112;-74
2023/05/01 03:27:48;;;;;;;1999.90;999.90;;;;;;;8.63;100.00;97989.47;5053801;28;20424;-75
2023/05/01 03:30:13;;;;;;;1999.90;999.90;;;;;;;8.49;100.00;97984.63;5053789;28;20036;-74
2023/05/01 03:32:39;;;;;;;1999.90;999.90;;;;;;;8.39;100.00;97998.34;5036362;28;20048;-74
2023/05/01 03:35:04;;;;;;;1999.90;999.90;;;;;;;8.44;100.00;97995.56;5055678;28;20029;-75
2023/05/01 03:37:30;;;;;;;1999.90;999.90;;;;;;;8.46;100.00;97998.00;5054890;28;20415;-75
2023/05/01 03:39:55;;;;;;;1999.90;999.90;;;;;;;8.51;100.00;98003.44;5035580;28;20402;-74
2023/05/01 03:42:20;;;;;;;1999.90;999.90;;;;;;;8.48;100.00;98007.56;5053117;28;20116;-75
2023/05/01 03:44:46;;;;;;;1999.90;999.90;;;;;;;8.53;100.00;97996.59;5053155;28;20025;-75
2023/05/01 03:47:12;;;;;;;1999.90;999.90;;;;;;;8.56;100.00;98004.22;5036097;28;20557;-76
2023/05/01 03:49:37;;;;;;;1999.90;999.90;;;;;;;8.66;100.00;97995.16;5054045;28;20033;-75
2023/05/01 03:52:02;;;;;;;1999.90;999.90;;;;;;;8.70;100.00;97998.16;5053744;28;20021;-74
2023/05/01 03:54:28;;;;;;;1999.90;999.90;;;;;;;8.74;100.00;98008.19;5053158;28;20028;-75
2023/05/01 03:56:53;;;;;;;1999.90;999.90;;;;;;;8.74;100.00;97996.50;5053149;28;20025;-75
2023/05/01 03:59:18;;;;;;;1999.90;999.90;;;;;;;8.79;100.00;98000.00;5053003;28;20402;-74
2023/05/01 04:01:44;;;;;;;1999.90;999.90;;;;;;;8.90;100.00;97990.66;5053035;28;20020;-75
2023/05/01 04:04:10;;;;;;;1999.90;999.90;;;;;;;8.99;100.00;98008.03;5053085;28;20021;-75
2023/05/01 04:06:36;;;;;;;1999.90;999.90;;;;;;;9.02;100.00;98017.59;5035157;28;20541;-74
2023/05/01 04:09:01;;;;;;;1999.90;999.90;;;;;;;9.05;100.00;97997.91;5053304;28;20028;-75
2023/05/01 04:11:27;;;;;;;1999.90;999.90;;;;;;;9.09;100.00;97998.97;5052826;28;20065;-74
2023/05/01 04:13:52;;;;;;;1999.90;999.90;;;;;;;9.05;100.00;98003.38;5052332;28;20441;-74
2023/05/01 04:16:17;;;;;;;1999.90;999.90;;;;;;;9.16;100.00;97999.47;5052578;28;20116;-76
2023/05/01 04:18:43;;;;;;;1999.90;999.90;;;;;;;9.08;100.00;97991.91;5034248;28;20021;-75
2023/05/01 04:21:08;;;;;;;1999.90;999.90;;;;;;;9.18;100.00;97989.06;5052502;28;20036;-75
2023/05/01 04:23:33;;;;;;;1999.90;999.90;;;;;;;9.21;100.00;97996.69;5034698;28;20102;-74
2023/05/01 04:25:59;;;;;;;1999.90;999.90;;;;;;;9.20;100.00;97996.97;5052807;28;20049;-75
2023/05/01 04:28:25;;;;;;;1999.90;999.90;;;;;;;9.40;100.00;97992.16;5034551;28;20043;-75
2023/05/01 04:30:50;;;;;;;1999.90;999.90;;;;;;;9.57;100.00;98000.75;5051538;28;20133;-77
2023/05/01 04:33:16;;;;;;;1999.90;999.90;;;;;;;9.54;100.00;97995.03;5052373;28;20029;-76
2023/05/01 04:35:41;;;;;;;1999.90;999.90;;;;;;;9.74;100.00;97999.50;5051948;28;20037;-75
2023/05/01 04:38:08;;;;;;;1999.90;999.90;;;;;;;9.63;100.00;98001.50;5052613;28;20044;-75
2023/05/01 04:40:34;;;;;;;1999.90;999.90;;;;;;;9.67;100.00;97999.84;5052303;28;20024;-75
2023/05/01 04:42:59;;;;;;;1999.90;999.90;;;;;;;9.75;100.00;98007.38;5053828;28;20094;-76
2023/05/01 04:45:25;;;;;;;1999.90;999.90;;;;;;;9.59;100.00;97997.72;5055161;28;20379;-76
2023/05/01 04:47:50;;;;;;;1999.90;999.90;;;;;;;9.62;100.00;98000.69;5053630;28;20056;-76
2023/05/01 04:50:15;;;;;;;1999.90;999.90;;;;;;;9.64;100.00;98000.41;5052333;28;20042;-76
2023/05/01 04:52:41;;;;;;;1999.90;999.90;;;;;;;9.73;100.00;98003.31;5052040;28;20473;-76
2023/05/01 04:55:08;;;;;;;1999.90;999.90;;;;;;;9.82;100.00;98001.59;5052022;28;20067;-76
2023/05/01 04:57:33;;;;;;;1999.90;999.90;;;;;;;10.03;100.00;98008.44;5052133;28;20025;-75
2023/05/01 04:59:59;;;;;;;1999.90;999.90;;;;;;;10.16;100.00;98007.78;5053297;28;20061;-76
2023/05/01 05:02:25;;;;;;;1999.90;999.90;;;;;;;10.32;100.00;98011.97;5053141;28;20078;-76
2023/05/01 05:04:52;;;;;;;1999.90;999.90;;;;;;;10.73;100.00;98013.09;5051999;28;20052;-77
2023/05/01 05:07:18;;;;;;;1999.90;999.90;;;;;;;10.96;100.00;98024.25;5051503;28;20504;-76
2023/05/01 05:09:43;;;;;;;1999.90;999.90;;;;;;;11.36;100.00;98015.41;5018552;28;20026;-77
2023/05/01 05:12:09;;;;;;;1999.90;999.90;;;;;;;11.41;100.00;98011.75;5043232;28;20043;-76
2023/05/01 05:14:34;;;;;;;1999.90;999.90;;;;;;;11.40;100.00;98002.75;5051462;28;20028;-76
2023/05/01 05:16:59;;;;;;;1999.90;999.90;;;;;;;11.06;100.00;97992.06;5029951;28;20076;-76
2023/05/01 05:19:25;;;;;;;1999.90;999.90;;;;;;;10.96;100.00;97985.94;5031376;28;20052;-76
2023/05/01 05:21:50;;;;;;;1999.90;999.90;;;;;;;10.60;100.00;97996.56;5031659;28;20080;-76
2023/05/01 05:24:15;;;;;;;1999.90;999.90;;;;;;;10.82;100.00;98005.00;5030939;28;20026;-77
2023/05/01 05:26:42;;;;;;;1999.90;999.90;;;;;;;10.92;100.00;97996.66;5030745;28;20537;-76
2023/05/01 05:29:07;;;;;;;1999.90;999.90;;;;;;;11.20;100.00;98012.09;5049715;28;20388;-77
2023/05/01 05:31:33;;;;;;;1999.90;999.90;;;;;;;11.21;100.00;98013.72;5033063;28;20029;-75
2023/05/01 05:33:58;;;;;;;1999.90;999.90;;;;;;;11.14;100.00;98016.03;5033194;28;20057;-76
2023/05/01 05:36:23;;;;;;;1999.90;999.90;;;;;;;11.08;100.00;98010.94;5032903;28;20367;-76
2023/05/01 05:38:49;;;;;;;1999.90;999.90;;;;;;;11.21;100.00;98018.41;5033261;28;20049;-75
2023/05/01 05:41:14;;;;;;;1999.90;999.90;;;;;;;11.12;100.00;98020.97;5032763;28;20032;-76
2023/05/01 05:43:40;;;;;;;1999.90;999.90;;;;;;;11.25;100.00;98024.88;5050462;28;20032;-75
2023/05/01 05:46:06;;;;;;;1999.90;999.90;;;;;;;11.17;100.00;98014.63;5050242;28;20466;-75
2023/05/01 05:48:31;;;;;;;1999.90;999.90;;;;;;;11.27;100.00;98022.69;5050641;28;20037;-76
2023/05/01 05:50:57;;;;;;;1999.90;999.90;;;;;;;11.02;100.00;98012.13;5051455;28;20080;-75
2023/05/01 05:53:22;;;;;;;1999.90;999.90;;;;;;;11.36;100.00;98015.41;5050430;28;20040;-76
2023/05/01 05:55:48;;;;;;;1999.90;999.90;;;;;;;11.65;100.00;98012.47;5047598;28;20040;-76
2023/05/01 05:58:18;;;;;;;1999.90;999.90;;;;;;;11.63;100.00;98017.41;5032513;28;20378;-76
2023/05/01 06:00:51;;;;;;;1999.90;999.90;;;;;;;11.96;99.33;98021.78;5032361;28;20163;-76
2023/05/01 06:03:18;;;;;;;1999.90;999.90;;;;;;;12.02;98.99;98023.31;5032668;28;20028;-79
2023/05/01 06:05:43;;;;;;;1999.90;999.90;;;;;;;12.15;98.13;98017.00;5069752;28;20470;-76
2023/05/01 06:08:09;;;;;;;1999.90;999.90;;;;;;;12.44;95.45;98027.69;5069898;28;20050;-80
2023/05/01 06:10:36;;;;;;;1999.90;999.90;;;;;;;12.55;94.47;98025.56;5070467;28;20024;-80
2023/05/01 06:13:02;;;;;;;1999.90;999.90;;;;;;;12.54;93.69;98024.75;5074765;28;20465;-78
2023/05/01 06:15:28;;;;;;;1999.90;999.90;;;;;;;12.85;92.06;98024.91;5070732;28;20048;-76
2023/05/01 06:17:54;;;;;;;1999.90;999.90;;;;;;;13.18;89.26;98031.06;5047324;28;20079;-74
2023/05/01 06:20:19;;;;;;;1999.90;999.90;;;;;;;13.52;86.04;98028.59;5042908;28;20032;-77
2023/05/01 06:22:45;;;;;;;1999.90;999.90;;;;;;;13.89;83.99;98022.69;5041505;28;20076;-77
2023/05/01 06:25:11;;;;;;;1999.90;999.90;;;;;;;13.95;83.36;98021.41;5046771;28;20025;-77
2023/05/01 06:27:36;;;;;;;1999.90;999.90;;;;;;;14.39;77.81;98033.47;5027238;28;20376;-77
2023/05/01 06:30:01;;;;;;;1999.90;999.90;;;;;;;14.51;75.52;98027.34;5043723;28;20029;-79
2023/05/01 06:32:27;;;;;;;1999.90;999.90;;;;;;;14.57;74.50;98020.56;5031817;28;20033;-78
2023/05/01 06:34:52;;;;;;;1999.90;999.90;;;;;;;14.93;73.22;98034.91;5028683;28;20041;-76
2023/05/01 06:37:18;;;;;;;1999.90;999.90;;;;;;;15.18;71.83;98036.06;5029373;28;20049;-75
2023/05/01 06:39:43;;;;;;;1999.90;999.90;;;;;;;15.41;70.18;98035.59;5019518;28;20021;-75
2023/05/01 06:42:11;;;;;;;1999.90;999.90;;;;;;;15.47;68.69;98031.56;5037824;28;20498;-76
2023/05/01 06:44:36;;;;;;;1999.90;999.90;;;;;;;15.78;66.46;98034.16;5024801;28;20034;-75
2023/05/01 06:47:04;;;;;;;1999.90;999.90;;;;;;;15.17;68.49;98039.97;5038397;28;20021;-76
2023/05/01 06:49:29;;;;;;;1999.90;999.90;;;;;;;14.35;72.22;98040.72;5039398;28;20034;-76
2023/05/01 06:51:55;;;;;;;1999.90;999.90;;;;;;;15.00;70.46;98041.56;5028753;28;20450;-75
2023/05/01 06:54:20;;;;;;;1999.90;999.90;;;;;;;15.56;68.15;98050.06;5039781;28;20363;-76
2023/05/01 06:56:45;;;;;;;1999.90;999.90;;;;;;;14.52;70.31;98040.78;5028779;28;20378;-75
2023/05/01 06:59:11;;;;;;;1999.90;999.90;;;;;;;14.40;71.53;98046.91;5043130;28;20112;-76
2023/05/01 07:01:36;;;;;;;1999.90;999.90;;;;;;;14.94;69.34;98059.38;5041036;28;20481;-75
2023/05/01 07:04:02;;;;;;;1999.90;999.90;;;;;;;15.54;66.25;98059.47;5042937;28;20397;-79
2023/05/01 07:06:28;;;;;;;1999.90;999.90;;;;;;;15.82;64.40;98061.88;5052442;28;20040;-83
2023/05/01 07:08:53;;;;;;;1999.90;999.90;;;;;;;15.89;62.67;98049.19;5054914;28;20029;-76
2023/05/01 07:11:19;;;;;;;1999.90;999.90;;;;;;;15.42;62.47;98012.41;5030456;28;20545;-75
2023/05/01 07:13:44;;;;;;;1999.90;999.90;;;;;;;16.25;61.66;98039.69;5039174;28;20025;-79
2023/05/01 07:16:10;;;;;;;1999.90;999.90;;;;;;;16.55;58.40;98050.50;5042719;28;20033;-76
2023/05/01 07:18:36;;;;;;;1999.90;999.90;;;;;;;16.84;58.40;98052.47;5041475;28;20056;-74
2023/05/01 07:21:02;;;;;;;1999.90;999.90;;;;;;;16.52;58.49;98048.38;5042233;28;20387;-75
2023/05/01 07:23:27;;;;;;;1999.90;999.90;;;;;;;16.84;57.72;98052.47;5040623;28;20032;-76
2023/05/01 07:25:53;;;;;;;1999.90;999.90;;;;;;;16.33;56.31;98047.13;5042690;28;20025;-75
2023/05/01 07:28:19;;;;;;;1999.90;999.90;;;;;;;16.00;57.98;98052.44;5041822;28;20091;-75
2023/05/01 07:30:44;;;;;;;1999.90;999.90;;;;;;;16.18;58.86;98045.72;5043987;28;20037;-75
2023/05/01 07:33:10;;;;;;;1999.90;999.90;;;;;;;16.00;57.44;98042.22;5031222;28;20056;-78
2023/05/01 07:35:36;;;;;;;1999.90;999.90;;;;;;;15.69;60.11;98041.63;5021356;28;20033;-78
2023/05/01 07:38:01;;;;;;;1999.90;999.90;;;;;;;15.69;59.99;98036.09;5044776;28;20052;-84
2023/05/01 07:40:26;;;;;;;1999.90;999.90;;;;;;;15.45;60.00;98035.75;5039025;28;20036;-79
2023/05/01 07:42:52;;;;;;;1999.90;999.90;;;;;;;15.43;61.08;98011.28;5059183;28;20470;-80
2023/05/01 07:45:17;;;;;;;1999.90;999.90;;;;;;;15.33;61.88;98022.63;5036502;28;20025;-81
2023/05/01 07:47:42;;;;;;;1999.90;999.90;;;;;;;15.79;61.54;98030.22;5054759;28;20031;-83
2023/05/01 07:50:12;;;;;;;1999.90;999.90;;;;;;;15.78;60.45;98022.28;5036852;28;20359;-85
2023/05/01 07:52:40;;;;;;;1999.90;999.90;;;;;;;15.53;59.54;98001.91;5039434;28;20082;-81
2023/05/01 07:55:06;;;;;;;1999.90;999.90;;;;;;;15.43;61.17;98038.03;5056242;28;20029;-84
2023/05/01 07:57:32;;;;;;;1999.90;999.90;;;;;;;15.09;62.07;98038.84;5054910;28;20516;-81
2023/05/01 07:59:58;;;;;;;1999.90;999.90;;;;;;;14.86;63.10;98045.59;5055409;28;20021;-81
2023/05/01 08:02:23;;;;;;;1999.90;999.90;;;;;;;15.07;62.56;98057.59;5055169;28;20035;-83
2023/05/01 08:04:48;;;;;;;1999.90;999.90;;;;;;;14.91;63.72;98043.47;5038105;28;20500;-82
2023/05/01 08:07:14;;;;;;;1999.90;999.90;;;;;;;14.89;64.39;98056.78;5057158;28;20028;-82
2023/05/01 08:09:39;;;;;;;1999.90;999.90;;;;;;;14.86;64.35;98034.56;5054597;28;20508;-82
2023/05/01 08:12:05;;;;;;;1999.90;999.90;;;;;;;14.80;62.86;98053.19;5053694;28;20536;-84
2023/05/01 08:14:30;;;;;;;1999.90;999.90;;;;;;;14.89;61.59;98051.28;5035869;28;20470;-81
2023/05/01 08:16:56;;;;;;;1999.90;999.90;;;;;;;15.20;60.63;98050.34;5052969;28;20029;-81
2023/05/01 08:19:22;;;;;;;1999.90;999.90;;;;;;;15.17;61.10;98046.28;5053061;28;20029;-83
2023/05/01 08:21:47;;;;;;;1999.90;999.90;;;;;;;15.07;66.39;98049.34;5054421;28;20029;-82
2023/05/01 08:24:13;;;;;;;1999.90;999.90;;;;;;;14.87;68.80;98059.06;5035958;28;20048;-84
2023/05/01 08:26:38;;;;;;;1999.90;999.90;;;;;;;14.83;68.73;98046.22;5054194;28;20519;-85
2023/05/01 08:29:03;;;;;;;1999.90;999.90;;;;;;;15.14;69.25;98049.69;5037684;28;20040;-84
2023/05/01 08:31:29;;;;;;;1999.90;999.90;;;;;;;15.14;70.44;98052.44;5036724;28;20544;-83
2023/05/01 08:33:54;;;;;;;1999.90;999.90;;;;;;;15.10;70.33;98051.44;5055429;28;20504;-83
2023/05/01 08:36:20;;;;;;;1999.90;999.90;;;;;;;15.10;71.13;98040.44;5055155;28;20021;-84
2023/05/01 08:38:45;;;;;;;1999.90;999.90;;;;;;;15.33;70.53;98050.19;5053785;28;20053;-85
2023/05/01 08:41:17;;;;;;;1999.90;999.90;;;;;;;15.47;70.32;98036.25;5037967;28;20029;-82
2023/05/01 08:43:43;;;;;;;1999.90;999.90;;;;;;;16.01;68.64;98046.56;5053831;28;20088;-83
2023/05/01 08:46:14;;;;;;;1999.90;999.90;;;;;;;15.67;69.40;98043.06;5035757;28;20362;-85
2023/05/01 08:48:41;;;;;;;1999.90;999.90;;;;;;;15.74;68.67;98048.91;5053771;28;20036;-82
2023/05/01 08:51:09;;;;;;;1999.90;999.90;;;;;;;16.31;65.38;98046.66;5035375;28;20045;-83
2023/05/01 08:53:36;;;;;;;1999.90;999.90;;;;;;;16.04;66.74;98051.44;5035774;28;20465;-83
2023/05/01 08:56:05;;;;;;;1999.90;999.90;;;;;;;16.54;64.18;98050.78;5053721;28;20031;-81
2023/05/01 08:58:34;;;;;;;1999.90;999.90;;;;;;;16.60;65.16;98055.03;5036432;28;20029;-84
2023/05/01 09:01:01;;;;;;;1999.90;999.90;;;;;;;17.26;61.76;98060.81;5035981;28;20055;-82
2023/05/01 09:03:30;;;;;;;1999.90;999.90;;;;;;;18.15;57.68;98055.47;5019362;28;20111;-82
2023/05/01 09:05:57;;;;;;;1999.90;999.90;;;;;;;19.32;54.40;98058.56;5035748;28;20123;-81
2023/05/01 09:08:22;;;;;;;1999.90;999.90;;;;;;;18.45;54.98;98058.88;5035932;28;20029;-83
2023/05/01 09:10:49;;;;;;;1999.90;999.90;;;;;;;20.59;49.90;98056.66;5053275;28;20037;-82
2023/05/01 09:13:14;;;;;;;1999.90;999.90;;;;;;;21.80;45.14;98063.91;5053135;28;20037;-81
2023/05/01 09:15:40;;;;;;;1999.90;999.90;;;;;;;21.08;46.88;98059.88;5053524;28;20033;-79
2023/05/01 09:18:07;;;;;;;1999.90;999.90;;;;;;;20.68;47.28;98060.88;5035572;28;20092;-84
2023/05/01 09:20:36;;;;;;;1999.90;999.90;;;;;;;19.87;49.27;98053.09;5042707;28;20040;-82
2023/05/01 09:23:01;;;;;;;1999.90;999.90;;;;;;;19.52;49.24;98063.97;5065894;28;20013;-80
2023/05/01 09:25:28;;;;;;;1999.90;999.90;;;;;;;20.27;48.15;98058.59;5033015;28;20036;-83
2023/05/01 09:27:54;;;;;;;1999.90;999.90;;;;;;;21.08;45.49;98057.88;5065334;28;20029;-81
2023/05/01 09:30:37;;;;;;;1999.90;999.90;;;;;;;19.44;48.98;98051.06;5046793;28;20025;-81
2023/05/01 09:33:08;;;;;;;1999.90;999.90;;;;;;;18.24;53.18;98043.50;5034344;28;20028;-84
2023/05/01 09:35:50;;;;;;;1999.90;999.90;;;;;;;17.81;54.02;98050.28;5052204;28;20028;-83
2023/05/01 09:38:26;;;;;;;1999.90;999.90;;;;;;;18.52;52.25;98047.25;5035695;28;20448;-83
2023/05/01 09:40:57;;;;;;;1999.90;999.90;;;;;;;18.19;53.07;98059.19;5055704;28;20116;-82
2023/05/01 09:43:27;;;;;;;1999.90;999.90;;;;;;;17.65;52.43;98052.88;5055934;28;20029;-81
2023/05/01 09:46:23;;;;;;;1999.90;999.90;;;;;;;17.88;52.22;98050.56;5034975;28;20025;-79
2023/05/01 09:48:54;;;;;;;;;;;;;;;17.22;54.88;98052.38;5018888;28;20490;-80
2023/05/01 09:51:30;;;;;;;1999.90;999.90;;;;;;;17.98;53.05;98033.50;5052164;28;19952;-85
2023/05/01 09:54:04;;;;;;;1999.90;999.90;;;;;;;18.01;53.30;98038.34;5051782;28;20029;-83
2023/05/01 09:56:31;;;;;;;1999.90;999.90;;;;;;;18.06;52.57;98043.69;5052498;28;20124;-81
2023/05/01 09:59:13;;;;;;;1999.90;999.90;;;;;;;18.50;50.67;98039.31;5051610;28;20547;-79
2023/05/01 10:01:40;;;;;;;1999.90;999.90;;;;;;;18.17;52.17;98044.88;5051426;28;20799;-81
2023/05/01 10:04:07;;;;;;;1999.90;999.90;;;;;;;18.55;50.51;98029.94;5033600;28;20020;-80
2023/05/01 10:06:32;;;;;;;1999.90;999.90;;;;;;;18.56;51.02;98037.94;5051429;28;20021;-79
2023/05/01 10:08:58;;;;;;;1999.90;999.90;;;;;;;18.41;51.43;98033.03;5034382;28;20116;-82
2023/05/01 10:11:23;;;;;;;1999.90;999.90;;;;;;;18.23;51.44;98025.28;5052355;28;20027;-80
2023/05/01 10:14:08;;;;;;;1999.90;999.90;;;;;;;17.88;52.09;98036.72;5054403;28;20021;-81
2023/05/01 10:16:35;;;;;;;1999.90;999.90;;;;;;;18.06;51.81;98034.56;5051939;28;20109;-81
2023/05/01 10:19:02;;;;;;;1999.90;999.90;;;;;;;18.22;51.65;98032.78;5051560;28;20021;-83
2023/05/01 10:21:29;;;;;;;1999.90;999.90;;;;;;;17.97;51.80;98018.06;5033251;28;20021;-82
2023/05/01 10:23:54;;;;;;;1999.90;999.90;;;;;;;18.14;52.22;98012.31;5033075;28;20029;-80
2023/05/01 10:26:20;;;;;;;1999.90;999.90;;;;;;;17.76;52.67;98014.50;5052129;28;20025;-82
2023/05/01 10:28:47;;;;;;;1999.90;999.90;;;;;;;17.88;52.64;98000.75;5050367;28;20021;-81
2023/05/01 10:31:14;;;;;;;1999.90;999.90;;;;;;;18.42;50.98;98020.00;5032873;28;20029;-82
2023/05/01 10:33:41;;;;;;;1999.90;999.90;;;;;;;18.80;50.10;98014.94;5051261;28;20025;-81
2023/05/01 10:36:25;;;;;;;1999.90;999.90;;;;;;;18.45;50.69;98017.31;5052182;28;20485;-83
2023/05/01 10:38:51;;;;;;;1999.90;999.90;;;;;;;18.53;50.67;97999.81;5051484;28;20053;-82
2023/05/01 10:41:16;;;;;;;1999.90;999.90;;;;;;;17.91;51.82;97994.53;5048928;28;20037;-84
2023/05/01 10:43:42;;;;;;;1999.90;999.90;;;;;;;18.07;52.44;98008.50;5033169;28;20033;-81
2023/05/01 10:46:15;;;;;;;1999.90;999.90;;;;;;;17.79;53.87;98007.50;5013854;28;20175;-82
2023/05/01 10:48:43;;;;;;;1999.90;999.90;;;;;;;17.97;52.69;98001.47;5032195;28;20494;-82
2023/05/01 10:51:10;;;;;;;1999.90;999.90;;;;;;;17.70;53.55;97996.50;5014410;28;20141;-84
2023/05/01 10:53:37;;;;;;;1999.90;999.90;;;;;;;17.78;53.59;97986.50;5010954;28;20096;-83